Pagina principale
METAR-TAF:

METAR-TAF

Aeroporti :

Katima Mulilo, Namibia

latitudine: 17-38-04S, longitudine: 024-10-36E, altezza: 985 m

Osservazione

Il bollettino è stato emesso 6 ore e 23 minuti fa, alle 13:00 UTC
Temperature 30°C
Umidità 52%
Pressione 1014 hPa
Visibilità 10 km o più
Poco nuvoloso ad un'altezza di 3000 ft, Cumulo congesto.

METAR: FYKM 161300Z /////KT 9999 FEW030TCU 30/19 Q1014

Ora: 21:23 (19:23 UTC)

Previsione

Il bollettino è stato emesso 2 ore e 23 minuti fa, alle 17:00 UTC
Previsione valida dal 16 alle 18 UTC al 17 alle 03 UTC
Vento 6 kt da sud/sud-est
Visibilità: 8000 m
Nubi sparse ad un'altezza di 3000 ft, Cumulonembo.
temporale, pioggia
Evoluzione graduale
dal 16 alle 22 UTC al 17 alle 00 UTC
Vento kt da nord
Poco nuvoloso ad un'altezza di 3000 ft, Cumulonembo.
rovesci di pioggia

TAF: FYKM 161700Z 1618/1703 15006KT 8000 TSRA SCT030CB BECMG 1622/1700 00000KT -SHRA FEW030CB

Osservazioni e previsioni meteorologiche di più di 4000 aeroporti (messaggi METAR e TAF).

Le stazioni disponibili sono rappresentate dai dischi gialli e rossi sulla carta.

Puntare il mouse per vedere il nome della stazione.

Clicca sopra per visualizzare le osservazioni e previsioni meteorologiche.

Per cambiare la mappa : fare clic sui pulsanti verdi con una croce nera per ingrandire, il pulsante verde con un trattino per diminuire, o sulla freccia verde per le mappe adiacenti.


METAR-TAF: